KAYS/AYS METAR and TAF weather

Enter ICAO airport designator
Station Type Date Time Source
KAYS METAR 2022/10/01 08:15 UTC NOAA

KAYS 010815Z AUTO 00000KT 10SM CLR 15/14 A2983 RMK AO2 T01470140


Station Type Date Time Source
KAYS Decoded METAR 2022/10/01 08:15 UTC NOAA

Waycross / Ware County, Ga, GA, United States (KAYS) 31-15N 082-24W 46M
Oct 01, 2022 - 04:15 AM EDT / 2022.10.01 0815 UTC
Wind: Calm:0
Visibility: 10 mile(s):0
Sky conditions: clear
Temperature: 58.5 F (14.7 C)
Dew Point: 57.2 F (14.0 C)
Relative Humidity: 95%
Pressure (altimeter): 29.83 in. Hg (1010 hPa)
ob: KAYS 010815Z AUTO 00000KT 10SM CLR 15/14 A2983 RMK AO2 T01470140
cycle: 8

Station Type Date Time Source
KAYS TAF UTC NOAA

Error!

Example: see airport list